Terminal Aerodrome Forecast
Issued by NWS Jacksonville, FL

Home | Current Version | Previous Version | Text Only | Print | Product List | Glossary On
Versions: 1 2 3 4 5 6 7 8 9 10 11 12 13 14 15 16 17 18 19 20 21 22 23 24 25
000
FTUS42 KJAX 061428 AAB
TAFJAX
TAF AMD
KJAX 061428Z 0614/0712 02010G18KT 6SM -SHRA BR OVC007
     FM061700 02010KT 5SM -SHRA BR OVC010
     FM062200 02011KT 6SM BR OVC015
     FM070200 01005KT P6SM SCT020 BKN250
     FM070600 36005KT P6SM SKC=

USA.gov is the U.S. government's official web portal to all federal, state and local government web resources and services.